sensor_id;sensor_type;location;lat;lon;timestamp;P1;durP1;ratioP1;P2;durP2;ratioP2
74900;SDS011;63461;51.416;6.758;2022-12-13T00:01:32;43.50;;;16.63;;
74900;SDS011;63461;51.416;6.758;2022-12-13T00:03:59;56.87;;;19.27;;
74900;SDS011;63461;51.416;6.758;2022-12-13T00:06:27;44.10;;;16.83;;
74900;SDS011;63461;51.416;6.758;2022-12-13T00:08:54;56.00;;;19.10;;
74900;SDS011;63461;51.416;6.758;2022-12-13T00:11:21;52.00;;;18.30;;
74900;SDS011;63461;51.416;6.758;2022-12-13T00:13:47;51.43;;;18.10;;
74900;SDS011;63461;51.416;6.758;2022-12-13T00:16:14;48.20;;;18.07;;
74900;SDS011;63461;51.416;6.758;2022-12-13T00:18:42;54.20;;;18.73;;
74900;SDS011;63461;51.416;6.758;2022-12-13T00:21:10;62.10;;;21.40;;
74900;SDS011;63461;51.416;6.758;2022-12-13T00:23:39;56.33;;;20.37;;
74900;SDS011;63461;51.416;6.758;2022-12-13T00:26:06;52.50;;;18.97;;
74900;SDS011;63461;51.416;6.758;2022-12-13T00:28:36;49.67;;;17.40;;
74900;SDS011;63461;51.416;6.758;2022-12-13T00:31:03;44.47;;;17.47;;
74900;SDS011;63461;51.416;6.758;2022-12-13T00:33:29;41.97;;;17.17;;
74900;SDS011;63461;51.416;6.758;2022-12-13T00:35:55;44.67;;;17.33;;
74900;SDS011;63461;51.416;6.758;2022-12-13T00:38:21;51.27;;;17.70;;
74900;SDS011;63461;51.416;6.758;2022-12-13T00:40:48;50.77;;;17.60;;
74900;SDS011;63461;51.416;6.758;2022-12-13T00:43:13;49.73;;;16.37;;
74900;SDS011;63461;51.416;6.758;2022-12-13T00:45:39;43.10;;;16.27;;
74900;SDS011;63461;51.416;6.758;2022-12-13T00:48:05;44.57;;;16.73;;
74900;SDS011;63461;51.416;6.758;2022-12-13T00:50:32;43.43;;;16.13;;
74900;SDS011;63461;51.416;6.758;2022-12-13T00:52:58;49.80;;;17.47;;
74900;SDS011;63461;51.416;6.758;2022-12-13T00:55:25;45.13;;;16.53;;
74900;SDS011;63461;51.416;6.758;2022-12-13T00:57:51;45.33;;;17.53;;
74900;SDS011;63461;51.416;6.758;2022-12-13T01:00:17;51.03;;;17.03;;
74900;SDS011;63461;51.416;6.758;2022-12-13T01:02:43;42.47;;;16.60;;
74900;SDS011;63461;51.416;6.758;2022-12-13T01:05:10;50.90;;;17.30;;
74900;SDS011;63461;51.416;6.758;2022-12-13T01:07:38;48.60;;;17.40;;
74900;SDS011;63461;51.416;6.758;2022-12-13T01:10:05;42.27;;;14.67;;
74900;SDS011;63461;51.416;6.758;2022-12-13T01:12:34;43.50;;;16.63;;
74900;SDS011;63461;51.416;6.758;2022-12-13T01:15:00;46.73;;;18.03;;
74900;SDS011;63461;51.416;6.758;2022-12-13T01:17:26;47.83;;;17.37;;
74900;SDS011;63461;51.416;6.758;2022-12-13T01:19:52;48.30;;;16.93;;
74900;SDS011;63461;51.416;6.758;2022-12-13T01:22:17;44.40;;;17.00;;
74900;SDS011;63461;51.416;6.758;2022-12-13T01:24:43;50.27;;;16.97;;
74900;SDS011;63461;51.416;6.758;2022-12-13T01:27:10;44.13;;;16.77;;
74900;SDS011;63461;51.416;6.758;2022-12-13T01:29:36;40.20;;;15.90;;
74900;SDS011;63461;51.416;6.758;2022-12-13T01:32:02;50.03;;;16.63;;
74900;SDS011;63461;51.416;6.758;2022-12-13T01:34:28;45.13;;;16.90;;
74900;SDS011;63461;51.416;6.758;2022-12-13T01:36:54;46.60;;;16.20;;
74900;SDS011;63461;51.416;6.758;2022-12-13T01:39:20;43.43;;;15.90;;
74900;SDS011;63461;51.416;6.758;2022-12-13T01:41:51;45.37;;;15.70;;
74900;SDS011;63461;51.416;6.758;2022-12-13T01:47:24;40.70;;;15.73;;
74900;SDS011;63461;51.416;6.758;2022-12-13T01:49:53;41.77;;;15.33;;
74900;SDS011;63461;51.416;6.758;2022-12-13T01:52:21;39.77;;;13.97;;
74900;SDS011;63461;51.416;6.758;2022-12-13T01:54:48;38.60;;;14.40;;
74900;SDS011;63461;51.416;6.758;2022-12-13T01:57:17;42.03;;;14.63;;
74900;SDS011;63461;51.416;6.758;2022-12-13T01:59:46;39.80;;;14.97;;
74900;SDS011;63461;51.416;6.758;2022-12-13T02:02:13;45.03;;;15.57;;
74900;SDS011;63461;51.416;6.758;2022-12-13T02:04:43;45.30;;;15.43;;
74900;SDS011;63461;51.416;6.758;2022-12-13T02:07:21;46.17;;;14.40;;
74900;SDS011;63461;51.416;6.758;2022-12-13T02:09:54;41.23;;;14.33;;
74900;SDS011;63461;51.416;6.758;2022-12-13T02:12:21;40.40;;;14.73;;
74900;SDS011;63461;51.416;6.758;2022-12-13T02:14:48;40.40;;;14.50;;
74900;SDS011;63461;51.416;6.758;2022-12-13T02:17:19;41.60;;;14.03;;
74900;SDS011;63461;51.416;6.758;2022-12-13T02:20:22;48.53;;;14.80;;
74900;SDS011;63461;51.416;6.758;2022-12-13T02:31:30;38.80;;;13.90;;
74900;SDS011;63461;51.416;6.758;2022-12-13T02:34:12;41.63;;;14.73;;
74900;SDS011;63461;51.416;6.758;2022-12-13T02:37:22;38.43;;;13.70;;
74900;SDS011;63461;51.416;6.758;2022-12-13T02:39:56;39.80;;;13.33;;
74900;SDS011;63461;51.416;6.758;2022-12-13T02:42:33;41.43;;;14.53;;
74900;SDS011;63461;51.416;6.758;2022-12-13T02:45:10;41.93;;;14.07;;
74900;SDS011;63461;51.416;6.758;2022-12-13T02:47:41;34.43;;;13.63;;
74900;SDS011;63461;51.416;6.758;2022-12-13T02:50:08;39.30;;;13.97;;
74900;SDS011;63461;51.416;6.758;2022-12-13T02:52:37;38.03;;;14.80;;
74900;SDS011;63461;51.416;6.758;2022-12-13T02:55:08;40.43;;;14.43;;
74900;SDS011;63461;51.416;6.758;2022-12-13T02:57:37;40.17;;;14.33;;
74900;SDS011;63461;51.416;6.758;2022-12-13T03:02:44;39.77;;;14.27;;
74900;SDS011;63461;51.416;6.758;2022-12-13T03:05:35;39.63;;;12.97;;
74900;SDS011;63461;51.416;6.758;2022-12-13T03:15:16;38.23;;;13.90;;
74900;SDS011;63461;51.416;6.758;2022-12-13T03:18:07;33.73;;;12.97;;
74900;SDS011;63461;51.416;6.758;2022-12-13T03:20:47;37.50;;;13.37;;
74900;SDS011;63461;51.416;6.758;2022-12-13T03:23:35;35.40;;;13.37;;
74900;SDS011;63461;51.416;6.758;2022-12-13T03:26:09;41.07;;;13.80;;
74900;SDS011;63461;51.416;6.758;2022-12-13T03:28:38;36.10;;;13.23;;
74900;SDS011;63461;51.416;6.758;2022-12-13T03:31:04;38.10;;;14.37;;
74900;SDS011;63461;51.416;6.758;2022-12-13T03:33:30;35.10;;;13.40;;
74900;SDS011;63461;51.416;6.758;2022-12-13T03:35:56;36.30;;;13.93;;
74900;SDS011;63461;51.416;6.758;2022-12-13T03:38:22;38.20;;;14.37;;
74900;SDS011;63461;51.416;6.758;2022-12-13T03:40:52;36.73;;;13.13;;
74900;SDS011;63461;51.416;6.758;2022-12-13T03:43:32;44.57;;;13.63;;
74900;SDS011;63461;51.416;6.758;2022-12-13T03:45:58;38.83;;;13.77;;
74900;SDS011;63461;51.416;6.758;2022-12-13T03:48:25;41.07;;;13.43;;
74900;SDS011;63461;51.416;6.758;2022-12-13T03:50:52;37.60;;;13.53;;
74900;SDS011;63461;51.416;6.758;2022-12-13T03:53:19;35.10;;;13.47;;
74900;SDS011;63461;51.416;6.758;2022-12-13T03:55:46;44.80;;;14.40;;
74900;SDS011;63461;51.416;6.758;2022-12-13T03:58:12;38.30;;;13.40;;
74900;SDS011;63461;51.416;6.758;2022-12-13T04:00:38;35.17;;;13.93;;
74900;SDS011;63461;51.416;6.758;2022-12-13T04:03:04;38.20;;;13.93;;
74900;SDS011;63461;51.416;6.758;2022-12-13T04:05:29;36.70;;;13.57;;
74900;SDS011;63461;51.416;6.758;2022-12-13T04:07:55;47.10;;;15.47;;
74900;SDS011;63461;51.416;6.758;2022-12-13T04:10:22;43.90;;;14.33;;
74900;SDS011;63461;51.416;6.758;2022-12-13T04:12:48;41.80;;;14.53;;
74900;SDS011;63461;51.416;6.758;2022-12-13T04:15:32;37.93;;;13.03;;
74900;SDS011;63461;51.416;6.758;2022-12-13T04:17:58;38.20;;;13.70;;
74900;SDS011;63461;51.416;6.758;2022-12-13T04:20:24;41.93;;;13.90;;
74900;SDS011;63461;51.416;6.758;2022-12-13T04:22:50;38.70;;;13.27;;
74900;SDS011;63461;51.416;6.758;2022-12-13T04:25:15;36.37;;;13.70;;
74900;SDS011;63461;51.416;6.758;2022-12-13T04:27:42;33.57;;;12.93;;
74900;SDS011;63461;51.416;6.758;2022-12-13T04:30:07;39.67;;;13.80;;
74900;SDS011;63461;51.416;6.758;2022-12-13T04:32:33;37.07;;;14.57;;
74900;SDS011;63461;51.416;6.758;2022-12-13T04:34:59;36.00;;;12.60;;
74900;SDS011;63461;51.416;6.758;2022-12-13T04:37:25;35.13;;;13.50;;
74900;SDS011;63461;51.416;6.758;2022-12-13T04:39:50;40.00;;;13.93;;
74900;SDS011;63461;51.416;6.758;2022-12-13T04:42:16;37.37;;;14.23;;
74900;SDS011;63461;51.416;6.758;2022-12-13T04:44:42;40.37;;;13.77;;
74900;SDS011;63461;51.416;6.758;2022-12-13T04:47:08;34.73;;;13.20;;
74900;SDS011;63461;51.416;6.758;2022-12-13T04:49:34;38.00;;;12.90;;
74900;SDS011;63461;51.416;6.758;2022-12-13T04:52:00;38.77;;;13.00;;
74900;SDS011;63461;51.416;6.758;2022-12-13T04:54:26;40.37;;;13.50;;
74900;SDS011;63461;51.416;6.758;2022-12-13T04:56:53;40.70;;;14.20;;
74900;SDS011;63461;51.416;6.758;2022-12-13T04:59:18;33.37;;;12.77;;
74900;SDS011;63461;51.416;6.758;2022-12-13T05:01:44;40.90;;;14.13;;
74900;SDS011;63461;51.416;6.758;2022-12-13T05:04:10;36.27;;;13.13;;
74900;SDS011;63461;51.416;6.758;2022-12-13T05:06:36;41.83;;;13.20;;
74900;SDS011;63461;51.416;6.758;2022-12-13T05:09:02;33.93;;;12.97;;
74900;SDS011;63461;51.416;6.758;2022-12-13T05:11:28;45.13;;;15.03;;
74900;SDS011;63461;51.416;6.758;2022-12-13T05:13:54;39.80;;;14.07;;
74900;SDS011;63461;51.416;6.758;2022-12-13T05:16:19;36.87;;;14.10;;
74900;SDS011;63461;51.416;6.758;2022-12-13T05:18:45;38.63;;;13.77;;
74900;SDS011;63461;51.416;6.758;2022-12-13T05:21:11;37.73;;;13.13;;
74900;SDS011;63461;51.416;6.758;2022-12-13T05:23:37;39.00;;;13.30;;
74900;SDS011;63461;51.416;6.758;2022-12-13T05:26:04;36.10;;;13.00;;
74900;SDS011;63461;51.416;6.758;2022-12-13T05:28:30;31.83;;;12.77;;
74900;SDS011;63461;51.416;6.758;2022-12-13T05:30:57;37.43;;;12.93;;
74900;SDS011;63461;51.416;6.758;2022-12-13T05:33:29;39.67;;;14.43;;
74900;SDS011;63461;51.416;6.758;2022-12-13T05:35:55;40.33;;;12.93;;
74900;SDS011;63461;51.416;6.758;2022-12-13T05:38:21;31.57;;;13.03;;
74900;SDS011;63461;51.416;6.758;2022-12-13T05:40:47;33.97;;;13.13;;
74900;SDS011;63461;51.416;6.758;2022-12-13T05:43:13;33.83;;;12.90;;
74900;SDS011;63461;51.416;6.758;2022-12-13T05:45:39;38.27;;;12.83;;
74900;SDS011;63461;51.416;6.758;2022-12-13T05:48:04;37.47;;;12.80;;
74900;SDS011;63461;51.416;6.758;2022-12-13T05:50:30;45.15;;;17.95;;
74900;SDS011;63461;51.416;6.758;2022-12-13T05:52:56;36.80;;;14.53;;
74900;SDS011;63461;51.416;6.758;2022-12-13T05:55:22;35.43;;;13.13;;
74900;SDS011;63461;51.416;6.758;2022-12-13T05:57:48;35.20;;;12.97;;
74900;SDS011;63461;51.416;6.758;2022-12-13T06:00:13;39.53;;;13.93;;
74900;SDS011;63461;51.416;6.758;2022-12-13T06:02:40;33.53;;;13.20;;
74900;SDS011;63461;51.416;6.758;2022-12-13T06:05:07;35.80;;;12.80;;
74900;SDS011;63461;51.416;6.758;2022-12-13T06:07:37;41.90;;;14.70;;
74900;SDS011;63461;51.416;6.758;2022-12-13T06:10:03;35.50;;;12.73;;
74900;SDS011;63461;51.416;6.758;2022-12-13T06:12:30;33.27;;;12.73;;
74900;SDS011;63461;51.416;6.758;2022-12-13T06:14:58;38.37;;;13.47;;
74900;SDS011;63461;51.416;6.758;2022-12-13T06:17:24;39.27;;;13.50;;
74900;SDS011;63461;51.416;6.758;2022-12-13T06:19:50;40.13;;;13.60;;
74900;SDS011;63461;51.416;6.758;2022-12-13T06:22:16;40.63;;;14.07;;
74900;SDS011;63461;51.416;6.758;2022-12-13T06:24:43;37.10;;;13.60;;
74900;SDS011;63461;51.416;6.758;2022-12-13T06:27:09;38.33;;;14.43;;
74900;SDS011;63461;51.416;6.758;2022-12-13T06:29:35;42.40;;;14.27;;
74900;SDS011;63461;51.416;6.758;2022-12-13T06:32:01;43.20;;;14.47;;
74900;SDS011;63461;51.416;6.758;2022-12-13T06:34:27;38.20;;;14.83;;
74900;SDS011;63461;51.416;6.758;2022-12-13T06:36:57;34.77;;;14.63;;
74900;SDS011;63461;51.416;6.758;2022-12-13T06:39:23;33.13;;;13.77;;
74900;SDS011;63461;51.416;6.758;2022-12-13T06:41:49;41.33;;;15.40;;
74900;SDS011;63461;51.416;6.758;2022-12-13T06:44:14;34.90;;;14.33;;
74900;SDS011;63461;51.416;6.758;2022-12-13T06:46:40;46.83;;;14.90;;
74900;SDS011;63461;51.416;6.758;2022-12-13T06:49:07;40.37;;;14.60;;
74900;SDS011;63461;51.416;6.758;2022-12-13T06:51:33;43.10;;;14.10;;
74900;SDS011;63461;51.416;6.758;2022-12-13T06:53:59;35.57;;;14.37;;
74900;SDS011;63461;51.416;6.758;2022-12-13T06:56:26;37.37;;;14.17;;
74900;SDS011;63461;51.416;6.758;2022-12-13T06:58:53;39.43;;;13.90;;
74900;SDS011;63461;51.416;6.758;2022-12-13T07:01:19;39.10;;;13.57;;
74900;SDS011;63461;51.416;6.758;2022-12-13T07:03:44;40.53;;;14.07;;
74900;SDS011;63461;51.416;6.758;2022-12-13T07:06:11;37.00;;;13.83;;
74900;SDS011;63461;51.416;6.758;2022-12-13T07:08:39;37.67;;;13.30;;
74900;SDS011;63461;51.416;6.758;2022-12-13T07:11:05;37.23;;;13.90;;
74900;SDS011;63461;51.416;6.758;2022-12-13T07:13:31;39.40;;;12.53;;
74900;SDS011;63461;51.416;6.758;2022-12-13T07:15:58;37.83;;;13.93;;
74900;SDS011;63461;51.416;6.758;2022-12-13T07:18:25;40.03;;;12.93;;
74900;SDS011;63461;51.416;6.758;2022-12-13T07:20:50;38.10;;;13.67;;
74900;SDS011;63461;51.416;6.758;2022-12-13T07:23:16;38.60;;;12.67;;
74900;SDS011;63461;51.416;6.758;2022-12-13T07:25:49;36.07;;;12.53;;
74900;SDS011;63461;51.416;6.758;2022-12-13T07:28:16;30.67;;;12.17;;
74900;SDS011;63461;51.416;6.758;2022-12-13T07:30:42;43.10;;;13.60;;
74900;SDS011;63461;51.416;6.758;2022-12-13T07:33:08;39.80;;;13.47;;
74900;SDS011;63461;51.416;6.758;2022-12-13T07:35:34;37.77;;;14.13;;
74900;SDS011;63461;51.416;6.758;2022-12-13T07:38:00;38.63;;;14.07;;
74900;SDS011;63461;51.416;6.758;2022-12-13T07:40:26;40.67;;;13.60;;
74900;SDS011;63461;51.416;6.758;2022-12-13T07:42:52;43.23;;;13.53;;
74900;SDS011;63461;51.416;6.758;2022-12-13T07:45:19;42.50;;;13.73;;
74900;SDS011;63461;51.416;6.758;2022-12-13T07:47:46;45.10;;;14.77;;
74900;SDS011;63461;51.416;6.758;2022-12-13T07:50:12;40.57;;;14.03;;
74900;SDS011;63461;51.416;6.758;2022-12-13T07:52:38;40.23;;;14.27;;
74900;SDS011;63461;51.416;6.758;2022-12-13T07:55:04;35.33;;;13.50;;
74900;SDS011;63461;51.416;6.758;2022-12-13T07:57:31;36.03;;;13.20;;
74900;SDS011;63461;51.416;6.758;2022-12-13T07:59:57;38.03;;;13.70;;
74900;SDS011;63461;51.416;6.758;2022-12-13T08:02:23;37.33;;;13.63;;
74900;SDS011;63461;51.416;6.758;2022-12-13T08:04:49;37.00;;;14.10;;
74900;SDS011;63461;51.416;6.758;2022-12-13T08:07:15;38.17;;;14.63;;
74900;SDS011;63461;51.416;6.758;2022-12-13T08:09:41;47.00;;;15.37;;
74900;SDS011;63461;51.416;6.758;2022-12-13T08:12:07;41.33;;;14.27;;
74900;SDS011;63461;51.416;6.758;2022-12-13T08:14:33;40.57;;;14.10;;
74900;SDS011;63461;51.416;6.758;2022-12-13T08:16:58;39.73;;;15.43;;
74900;SDS011;63461;51.416;6.758;2022-12-13T08:19:24;41.93;;;14.97;;
74900;SDS011;63461;51.416;6.758;2022-12-13T08:21:50;40.87;;;14.63;;
74900;SDS011;63461;51.416;6.758;2022-12-13T08:24:17;39.50;;;14.53;;
74900;SDS011;63461;51.416;6.758;2022-12-13T08:26:43;38.27;;;14.00;;
74900;SDS011;63461;51.416;6.758;2022-12-13T08:29:11;41.70;;;14.60;;
74900;SDS011;63461;51.416;6.758;2022-12-13T08:31:37;42.60;;;15.87;;
74900;SDS011;63461;51.416;6.758;2022-12-13T08:34:03;44.13;;;15.00;;
74900;SDS011;63461;51.416;6.758;2022-12-13T08:36:29;48.27;;;14.97;;
74900;SDS011;63461;51.416;6.758;2022-12-13T08:38:55;44.17;;;15.87;;
74900;SDS011;63461;51.416;6.758;2022-12-13T08:41:23;39.80;;;15.90;;
74900;SDS011;63461;51.416;6.758;2022-12-13T08:43:49;40.50;;;14.57;;
74900;SDS011;63461;51.416;6.758;2022-12-13T08:46:15;46.73;;;16.53;;
74900;SDS011;63461;51.416;6.758;2022-12-13T08:48:40;45.87;;;16.00;;
74900;SDS011;63461;51.416;6.758;2022-12-13T08:51:07;50.40;;;16.83;;
74900;SDS011;63461;51.416;6.758;2022-12-13T08:53:36;48.77;;;15.73;;
74900;SDS011;63461;51.416;6.758;2022-12-13T08:56:03;50.17;;;16.33;;
74900;SDS011;63461;51.416;6.758;2022-12-13T08:58:31;43.80;;;14.90;;
74900;SDS011;63461;51.416;6.758;2022-12-13T09:00:57;44.60;;;15.23;;
74900;SDS011;63461;51.416;6.758;2022-12-13T09:03:23;47.50;;;15.60;;
74900;SDS011;63461;51.416;6.758;2022-12-13T09:05:49;44.30;;;14.33;;
74900;SDS011;63461;51.416;6.758;2022-12-13T09:08:15;49.10;;;15.90;;
74900;SDS011;63461;51.416;6.758;2022-12-13T09:10:42;52.13;;;17.27;;
74900;SDS011;63461;51.416;6.758;2022-12-13T09:13:07;49.13;;;16.27;;
74900;SDS011;63461;51.416;6.758;2022-12-13T09:15:33;41.80;;;15.70;;
74900;SDS011;63461;51.416;6.758;2022-12-13T09:18:02;46.27;;;16.43;;
74900;SDS011;63461;51.416;6.758;2022-12-13T09:20:28;42.03;;;16.03;;
74900;SDS011;63461;51.416;6.758;2022-12-13T09:22:54;41.67;;;15.73;;
74900;SDS011;63461;51.416;6.758;2022-12-13T09:25:20;40.53;;;15.50;;
74900;SDS011;63461;51.416;6.758;2022-12-13T09:27:45;44.87;;;15.07;;
74900;SDS011;63461;51.416;6.758;2022-12-13T09:30:11;41.07;;;15.03;;
74900;SDS011;63461;51.416;6.758;2022-12-13T09:32:37;42.37;;;14.77;;
74900;SDS011;63461;51.416;6.758;2022-12-13T09:35:05;46.27;;;15.53;;
74900;SDS011;63461;51.416;6.758;2022-12-13T09:37:31;42.27;;;15.23;;
74900;SDS011;63461;51.416;6.758;2022-12-13T09:39:57;44.50;;;15.83;;
74900;SDS011;63461;51.416;6.758;2022-12-13T09:42:24;42.83;;;15.03;;
74900;SDS011;63461;51.416;6.758;2022-12-13T09:44:53;48.37;;;16.03;;
74900;SDS011;63461;51.416;6.758;2022-12-13T09:47:29;40.77;;;14.03;;
74900;SDS011;63461;51.416;6.758;2022-12-13T09:50:20;45.23;;;15.57;;
74900;SDS011;63461;51.416;6.758;2022-12-13T09:53:03;41.87;;;14.77;;
74900;SDS011;63461;51.416;6.758;2022-12-13T09:55:38;39.77;;;14.83;;
74900;SDS011;63461;51.416;6.758;2022-12-13T09:58:19;40.77;;;14.87;;
74900;SDS011;63461;51.416;6.758;2022-12-13T10:00:50;40.00;;;14.37;;
74900;SDS011;63461;51.416;6.758;2022-12-13T10:03:18;39.50;;;14.60;;
74900;SDS011;63461;51.416;6.758;2022-12-13T10:06:11;43.67;;;16.17;;
74900;SDS011;63461;51.416;6.758;2022-12-13T10:08:41;42.90;;;16.20;;
74900;SDS011;63461;51.416;6.758;2022-12-13T10:11:13;47.63;;;16.47;;
74900;SDS011;63461;51.416;6.758;2022-12-13T10:19:14;43.40;;;15.17;;
74900;SDS011;63461;51.416;6.758;2022-12-13T10:21:44;39.10;;;14.87;;
74900;SDS011;63461;51.416;6.758;2022-12-13T10:24:14;38.70;;;14.37;;
74900;SDS011;63461;51.416;6.758;2022-12-13T10:26:58;37.77;;;13.63;;
74900;SDS011;63461;51.416;6.758;2022-12-13T10:29:56;35.30;;;14.40;;
74900;SDS011;63461;51.416;6.758;2022-12-13T10:32:26;44.83;;;14.47;;
74900;SDS011;63461;51.416;6.758;2022-12-13T10:34:51;36.00;;;13.53;;
74900;SDS011;63461;51.416;6.758;2022-12-13T10:39:52;39.60;;;14.03;;
74900;SDS011;63461;51.416;6.758;2022-12-13T10:42:19;37.67;;;14.13;;
74900;SDS011;63461;51.416;6.758;2022-12-13T10:44:46;34.47;;;12.77;;
74900;SDS011;63461;51.416;6.758;2022-12-13T10:47:14;37.70;;;14.20;;
74900;SDS011;63461;51.416;6.758;2022-12-13T10:52:27;37.70;;;13.83;;
74900;SDS011;63461;51.416;6.758;2022-12-13T10:55:05;29.57;;;12.60;;
74900;SDS011;63461;51.416;6.758;2022-12-13T10:57:52;35.77;;;13.33;;
74900;SDS011;63461;51.416;6.758;2022-12-13T11:00:34;35.83;;;13.30;;
74900;SDS011;63461;51.416;6.758;2022-12-13T11:03:30;35.57;;;13.17;;
74900;SDS011;63461;51.416;6.758;2022-12-13T11:06:11;31.03;;;12.90;;
74900;SDS011;63461;51.416;6.758;2022-12-13T11:08:39;30.43;;;12.00;;
74900;SDS011;63461;51.416;6.758;2022-12-13T11:11:05;37.20;;;13.10;;
74900;SDS011;63461;51.416;6.758;2022-12-13T11:16:13;34.87;;;13.33;;
74900;SDS011;63461;51.416;6.758;2022-12-13T11:18:46;41.07;;;14.20;;
74900;SDS011;63461;51.416;6.758;2022-12-13T11:21:21;33.57;;;12.73;;
74900;SDS011;63461;51.416;6.758;2022-12-13T11:23:50;32.33;;;12.70;;
74900;SDS011;63461;51.416;6.758;2022-12-13T11:26:17;40.13;;;14.17;;
74900;SDS011;63461;51.416;6.758;2022-12-13T11:40:02;49.97;;;18.27;;
74900;SDS011;63461;51.416;6.758;2022-12-13T11:42:44;44.10;;;16.23;;
74900;SDS011;63461;51.416;6.758;2022-12-13T11:45:18;36.73;;;14.53;;
74900;SDS011;63461;51.416;6.758;2022-12-13T11:50:56;31.63;;;12.60;;
74900;SDS011;63461;51.416;6.758;2022-12-13T11:56:04;28.23;;;10.83;;
74900;SDS011;63461;51.416;6.758;2022-12-13T12:01:46;25.93;;;11.30;;
74900;SDS011;63461;51.416;6.758;2022-12-13T12:07:21;27.47;;;10.90;;
74900;SDS011;63461;51.416;6.758;2022-12-13T12:10:01;24.50;;;10.13;;
74900;SDS011;63461;51.416;6.758;2022-12-13T12:12:40;25.23;;;10.20;;
74900;SDS011;63461;51.416;6.758;2022-12-13T12:15:14;28.50;;;9.90;;
74900;SDS011;63461;51.416;6.758;2022-12-13T12:17:47;22.93;;;10.10;;
74900;SDS011;63461;51.416;6.758;2022-12-13T12:20:14;26.73;;;9.73;;
74900;SDS011;63461;51.416;6.758;2022-12-13T12:22:49;26.57;;;10.17;;
74900;SDS011;63461;51.416;6.758;2022-12-13T12:25:35;23.63;;;10.33;;
74900;SDS011;63461;51.416;6.758;2022-12-13T12:28:30;24.43;;;9.73;;
74900;SDS011;63461;51.416;6.758;2022-12-13T12:31:21;27.27;;;10.23;;
74900;SDS011;63461;51.416;6.758;2022-12-13T12:33:52;26.00;;;9.70;;
74900;SDS011;63461;51.416;6.758;2022-12-13T12:36:49;24.47;;;9.73;;
74900;SDS011;63461;51.416;6.758;2022-12-13T12:42:32;23.93;;;9.33;;
74900;SDS011;63461;51.416;6.758;2022-12-13T12:46:20;27.73;;;10.20;;
74900;SDS011;63461;51.416;6.758;2022-12-13T12:51:46;26.27;;;9.80;;
74900;SDS011;63461;51.416;6.758;2022-12-13T12:57:12;25.77;;;10.17;;
74900;SDS011;63461;51.416;6.758;2022-12-13T13:05:34;24.97;;;8.93;;
74900;SDS011;63461;51.416;6.758;2022-12-13T13:08:11;24.80;;;8.27;;
74900;SDS011;63461;51.416;6.758;2022-12-13T13:10:46;20.53;;;8.47;;
74900;SDS011;63461;51.416;6.758;2022-12-13T13:15:59;22.47;;;8.33;;
74900;SDS011;63461;51.416;6.758;2022-12-13T13:18:45;20.23;;;8.17;;
74900;SDS011;63461;51.416;6.758;2022-12-13T13:26:26;20.83;;;7.93;;
74900;SDS011;63461;51.416;6.758;2022-12-13T13:28:53;20.47;;;8.23;;
74900;SDS011;63461;51.416;6.758;2022-12-13T13:31:19;23.17;;;8.23;;
74900;SDS011;63461;51.416;6.758;2022-12-13T13:33:48;23.10;;;8.53;;
74900;SDS011;63461;51.416;6.758;2022-12-13T13:39:10;26.57;;;9.33;;
74900;SDS011;63461;51.416;6.758;2022-12-13T13:45:20;27.73;;;9.60;;
74900;SDS011;63461;51.416;6.758;2022-12-13T13:52:25;43.17;;;13.00;;
74900;SDS011;63461;51.416;6.758;2022-12-13T13:57:48;46.13;;;13.37;;
74900;SDS011;63461;51.416;6.758;2022-12-13T14:03:48;34.97;;;12.20;;
74900;SDS011;63461;51.416;6.758;2022-12-13T14:12:12;29.33;;;11.53;;
74900;SDS011;63461;51.416;6.758;2022-12-13T14:21:02;21.80;;;9.73;;
74900;SDS011;63461;51.416;6.758;2022-12-13T14:23:59;26.57;;;9.73;;
74900;SDS011;63461;51.416;6.758;2022-12-13T14:29:11;25.97;;;10.40;;
74900;SDS011;63461;51.416;6.758;2022-12-13T14:31:41;24.03;;;8.93;;
74900;SDS011;63461;51.416;6.758;2022-12-13T14:34:20;25.27;;;9.27;;
74900;SDS011;63461;51.416;6.758;2022-12-13T14:36:58;26.07;;;9.90;;
74900;SDS011;63461;51.416;6.758;2022-12-13T14:39:26;37.23;;;13.00;;
74900;SDS011;63461;51.416;6.758;2022-12-13T14:41:54;32.43;;;13.77;;
74900;SDS011;63461;51.416;6.758;2022-12-13T14:44:32;29.50;;;12.30;;
74900;SDS011;63461;51.416;6.758;2022-12-13T14:47:04;32.13;;;12.63;;
74900;SDS011;63461;51.416;6.758;2022-12-13T14:49:33;30.03;;;13.90;;
74900;SDS011;63461;51.416;6.758;2022-12-13T14:52:17;32.67;;;13.30;;
74900;SDS011;63461;51.416;6.758;2022-12-13T14:54:47;34.37;;;15.33;;
74900;SDS011;63461;51.416;6.758;2022-12-13T14:57:20;35.53;;;15.53;;
74900;SDS011;63461;51.416;6.758;2022-12-13T14:59:51;37.27;;;14.50;;
74900;SDS011;63461;51.416;6.758;2022-12-13T15:02:29;40.77;;;15.17;;
74900;SDS011;63461;51.416;6.758;2022-12-13T15:04:57;54.03;;;18.60;;
74900;SDS011;63461;51.416;6.758;2022-12-13T15:10:01;31.10;;;12.60;;
74900;SDS011;63461;51.416;6.758;2022-12-13T15:12:30;34.23;;;12.03;;
74900;SDS011;63461;51.416;6.758;2022-12-13T15:14:57;31.97;;;12.10;;
74900;SDS011;63461;51.416;6.758;2022-12-13T15:19:58;34.53;;;12.23;;
74900;SDS011;63461;51.416;6.758;2022-12-13T15:22:28;23.23;;;9.90;;
74900;SDS011;63461;51.416;6.758;2022-12-13T15:24:58;27.70;;;10.43;;
74900;SDS011;63461;51.416;6.758;2022-12-13T15:27:27;26.93;;;10.50;;
74900;SDS011;63461;51.416;6.758;2022-12-13T15:29:53;30.47;;;12.67;;
74900;SDS011;63461;51.416;6.758;2022-12-13T15:32:20;36.20;;;13.47;;
74900;SDS011;63461;51.416;6.758;2022-12-13T15:34:47;39.60;;;14.67;;
74900;SDS011;63461;51.416;6.758;2022-12-13T15:37:23;32.80;;;11.83;;
74900;SDS011;63461;51.416;6.758;2022-12-13T15:39:53;28.83;;;9.73;;
74900;SDS011;63461;51.416;6.758;2022-12-13T15:45:04;30.17;;;10.00;;
74900;SDS011;63461;51.416;6.758;2022-12-13T15:47:43;24.77;;;9.87;;
74900;SDS011;63461;51.416;6.758;2022-12-13T15:50:30;43.57;;;11.83;;
74900;SDS011;63461;51.416;6.758;2022-12-13T15:53:58;27.63;;;10.53;;
74900;SDS011;63461;51.416;6.758;2022-12-13T15:56:20;35.40;;;11.27;;
74900;SDS011;63461;51.416;6.758;2022-12-13T15:58:56;33.17;;;12.03;;
74900;SDS011;63461;51.416;6.758;2022-12-13T16:01:28;35.47;;;13.20;;
74900;SDS011;63461;51.416;6.758;2022-12-13T16:03:55;39.67;;;12.83;;
74900;SDS011;63461;51.416;6.758;2022-12-13T16:06:21;31.80;;;12.93;;
74900;SDS011;63461;51.416;6.758;2022-12-13T16:08:57;28.00;;;11.70;;
74900;SDS011;63461;51.416;6.758;2022-12-13T16:11:47;37.67;;;11.90;;
74900;SDS011;63461;51.416;6.758;2022-12-13T16:14:24;28.80;;;10.13;;
74900;SDS011;63461;51.416;6.758;2022-12-13T16:17:21;26.20;;;10.60;;
74900;SDS011;63461;51.416;6.758;2022-12-13T16:19:53;28.63;;;10.87;;
74900;SDS011;63461;51.416;6.758;2022-12-13T16:22:21;28.17;;;10.87;;
74900;SDS011;63461;51.416;6.758;2022-12-13T16:24:48;29.07;;;10.57;;
74900;SDS011;63461;51.416;6.758;2022-12-13T16:27:14;28.93;;;11.57;;
74900;SDS011;63461;51.416;6.758;2022-12-13T16:29:40;34.63;;;11.70;;
74900;SDS011;63461;51.416;6.758;2022-12-13T16:32:06;29.20;;;11.37;;
74900;SDS011;63461;51.416;6.758;2022-12-13T16:34:32;32.47;;;10.57;;
74900;SDS011;63461;51.416;6.758;2022-12-13T16:36:57;42.03;;;14.43;;
74900;SDS011;63461;51.416;6.758;2022-12-13T16:39:24;37.83;;;13.10;;
74900;SDS011;63461;51.416;6.758;2022-12-13T16:41:50;31.73;;;10.83;;